Mary's Harbour, Canada
Current Conditions -  °F | °C
As of 2:00 AM on Thursday 23 Oct 2014 (Local Time) from CYMH Reporting Station
Clear Clear  
Wind Chill: 28°   Ceiling: Unl
Heat Index: 34°   Visibility: 9mi
Dew Point: 27°   Wind: 7mph
Humidity: 75%   Direction: 220°SW
Pressure: 30.31"   Gusts: NA
Location:  52.31°N, 55.84°W
Report Text: CYMH 230500Z AUTO 22006KT 9SM CLR 01/M03 A3031 RMK SLP265
Loading
Personal Weather Stations






























Interactive Weather Map
Tropical Storm Tracking
New forecast layout! Learn more

10-Day Weather Forecast

Advertisements
Track Severe Weather on mobile